Time;durP1;ratioP1;P1;durP2;ratioP2;P2;SDS_P1;SDS_P2;PMS_P1;PMS_P2;Temp;Humidity;BMP_temperature;BMP_pressure;BME280_temperature;BME280_humidity;BME280_pressure;Samples;Min_cycle;Max_cycle;Signal;HPM_P1;HPM_P2
2022/10/01 00:00:23;;;;;;;36.90;20.90;;;;;;;8.04;100.00;100181.38;5013956;28;20022;-76
2022/10/01 00:02:53;;;;;;;37.95;19.88;;;;;;;8.01;100.00;100173.81;5012488;28;20129;-75
2022/10/01 00:05:19;;;;;;;39.50;21.33;;;;;;;7.98;100.00;100169.84;5013533;28;20030;-75
2022/10/01 00:07:45;;;;;;;44.22;22.60;;;;;;;7.96;100.00;100178.09;5013496;28;20034;-75
2022/10/01 00:10:11;;;;;;;40.60;22.63;;;;;;;7.91;100.00;100167.34;5013662;28;20022;-75
2022/10/01 00:12:43;;;;;;;44.50;23.50;;;;;;;7.87;100.00;100181.72;5015222;28;20030;-77
2022/10/01 00:15:09;;;;;;;42.83;23.55;;;;;;;7.83;100.00;100180.31;5017513;28;20076;-75
2022/10/01 00:17:35;;;;;;;42.65;21.42;;;;;;;7.79;100.00;100171.16;5016269;28;20042;-76
2022/10/01 00:20:03;;;;;;;41.83;24.17;;;;;;;7.63;100.00;100157.28;5017469;28;20040;-75
2022/10/01 00:22:33;;;;;;;39.53;22.02;;;;;;;7.70;100.00;100174.81;5017481;28;20017;-75
2022/10/01 00:24:59;;;;;;;39.45;21.85;;;;;;;7.64;100.00;100178.75;5016159;28;20037;-76
2022/10/01 00:27:25;;;;;;;43.13;21.67;;;;;;;7.63;100.00;100182.88;5017313;28;20034;-76
2022/10/01 00:29:52;;;;;;;47.88;23.15;;;;;;;7.61;100.00;100183.38;5015600;28;20112;-76
2022/10/01 00:32:22;;;;;;;42.60;23.30;;;;;;;7.61;100.00;100176.88;5017063;28;20038;-76
2022/10/01 00:34:48;;;;;;;46.20;23.67;;;;;;;7.60;100.00;100175.28;5017069;28;20393;-75
2022/10/01 00:37:16;;;;;;;47.03;22.98;;;;;;;7.58;100.00;100172.13;5015965;28;20037;-75
2022/10/01 00:39:43;;;;;;;45.15;23.20;;;;;;;7.54;100.00;100175.94;5017615;28;20034;-77
2022/10/01 00:42:20;;;;;;;41.50;23.50;;;;;;;7.53;100.00;100177.19;5015881;28;20025;-75
2022/10/01 00:44:46;;;;;;;45.00;22.80;;;;;;;7.49;100.00;100176.56;5017171;28;20030;-75
2022/10/01 00:47:25;;;;;;;44.17;22.42;;;;;;;7.49;100.00;100175.78;5016681;28;20356;-75
2022/10/01 00:49:55;;;;;;;40.17;22.67;;;;;;;7.42;100.00;100171.19;5015516;28;20033;-76
2022/10/01 00:52:24;;;;;;;46.78;23.38;;;;;;;7.46;100.00;100179.59;5016989;28;20022;-76
2022/10/01 00:54:52;;;;;;;44.60;24.67;;;;;;;7.44;100.00;100179.25;4999036;28;20474;-75
2022/10/01 00:57:20;;;;;;;46.92;24.67;;;;;;;7.42;100.00;100185.41;5016601;28;20030;-76
2022/10/01 00:59:46;;;;;;;44.17;23.70;;;;;;;7.32;100.00;100166.00;5015651;28;20359;-76
2022/10/01 01:02:12;;;;;;;47.22;25.08;;;;;;;7.39;100.00;100177.03;5016713;28;20489;-76
2022/10/01 01:04:38;;;;;;;44.63;23.75;;;;;;;7.35;100.00;100171.53;5016742;28;20034;-76
2022/10/01 01:07:05;;;;;;;52.60;25.17;;;;;;;7.36;100.00;100173.09;5015251;28;20480;-75
2022/10/01 01:09:34;;;;;;;51.55;25.45;;;;;;;7.35;100.00;100165.84;5015276;28;20386;-76
2022/10/01 01:12:18;;;;;;;52.55;25.33;;;;;;;7.34;100.00;100163.47;5016461;28;20030;-75
2022/10/01 01:14:47;;;;;;;42.95;22.95;;;;;;;7.32;100.00;100155.44;5016552;28;20030;-75
2022/10/01 01:17:28;;;;;;;44.08;23.88;;;;;;;7.31;100.00;100168.06;5015255;28;20064;-75
2022/10/01 01:20:17;;;;;;;49.92;24.55;;;;;;;7.31;100.00;100164.41;5016182;28;20543;-75
2022/10/01 01:22:49;;;;;;;48.90;25.42;;;;;;;7.27;100.00;100158.91;5014793;28;20383;-75
2022/10/01 01:25:19;;;;;;;46.92;23.98;;;;;;;7.26;100.00;100156.53;5014013;28;20034;-76
2022/10/01 01:27:58;;;;;;;44.30;24.70;;;;;;;7.25;100.00;100157.78;5015058;28;20112;-75
2022/10/01 01:30:23;;;;;;;46.85;24.77;;;;;;;7.22;100.00;100164.44;5014795;28;20430;-76
2022/10/01 01:33:01;;;;;;;50.00;25.40;;;;;;;7.17;100.00;100151.63;5014636;28;20084;-75
2022/10/01 01:35:34;;;;;;;46.85;25.02;;;;;;;7.19;100.00;100151.16;5014717;28;20026;-76
2022/10/01 01:38:08;;;;;;;49.50;25.10;;;;;;;7.18;100.00;100156.03;5014897;28;20022;-75
2022/10/01 01:40:36;;;;;;;45.63;24.35;;;;;;;7.16;100.00;100155.75;5014712;28;20057;-75
2022/10/01 01:43:04;;;;;;;52.33;24.90;;;;;;;7.15;100.00;100147.69;5014644;28;20038;-76
2022/10/01 01:45:31;;;;;;;47.10;24.98;;;;;;;7.07;100.00;100147.22;5014589;28;20087;-77
2022/10/01 01:47:57;;;;;;;50.28;24.98;;;;;;;7.08;100.00;100148.78;5014658;28;20076;-75
2022/10/01 01:50:27;;;;;;;45.60;25.58;;;;;;;7.07;100.00;100150.84;5014697;28;20480;-74
2022/10/01 01:52:53;;;;;;;49.28;25.83;;;;;;;7.07;100.00;100150.06;5014412;28;20030;-74
2022/10/01 01:55:21;;;;;;;50.80;24.88;;;;;;;7.05;100.00;100144.84;5014455;28;20084;-75
2022/10/01 01:57:46;;;;;;;56.95;26.83;;;;;;;7.07;100.00;100147.22;5014582;28;20149;-75
2022/10/01 02:00:13;;;;;;;53.15;27.25;;;;;;;7.06;100.00;100149.25;5014225;28;20030;-76
2022/10/01 02:02:40;;;;;;;56.20;28.17;;;;;;;7.05;100.00;100144.03;5014198;28;20478;-75
2022/10/01 02:05:09;;;;;;;52.92;26.73;;;;;;;7.03;100.00;100147.34;4997859;28;20033;-75
2022/10/01 02:08:12;;;;;;;49.38;26.13;;;;;;;7.02;100.00;100139.31;4998011;28;20138;-76
2022/10/01 02:10:49;;;;;;;47.22;25.40;;;;;;;7.00;100.00;100139.00;5015192;28;20030;-75
2022/10/01 02:13:48;;;;;;;48.35;25.95;;;;;;;6.97;100.00;100139.94;5015688;28;20489;-76
2022/10/01 02:16:22;;;;;;;49.75;25.65;;;;;;;6.94;100.00;100132.34;5014046;28;20524;-75
2022/10/01 02:19:19;;;;;;;55.78;27.25;;;;;;;6.91;100.00;100136.16;5015142;28;20061;-76
2022/10/01 02:22:18;;;;;;;61.17;27.85;;;;;;;6.90;100.00;100126.03;5014271;28;20406;-76
2022/10/01 02:24:55;;;;;;;54.60;27.45;;;;;;;6.87;100.00;100122.09;5009698;28;20070;-76
2022/10/01 02:27:43;;;;;;;56.05;28.42;;;;;;;6.89;100.00;100125.25;5014914;28;20026;-75
2022/10/01 02:30:10;;;;;;;66.68;26.45;;;;;;;6.89;100.00;100119.56;5013412;28;20049;-74
2022/10/01 02:32:37;;;;;;;56.88;26.67;;;;;;;6.89;100.00;100119.56;5015020;28;20030;-76
2022/10/01 02:35:05;;;;;;;73.65;27.73;;;;;;;6.86;100.00;100111.22;5013647;28;20034;-76
2022/10/01 02:37:31;;;;;;;51.13;24.38;;;;;;;6.89;100.00;100115.94;4997097;28;20053;-75
2022/10/01 02:39:58;;;;;;;55.65;24.88;;;;;;;6.90;100.00;100114.69;5014897;28;20037;-75
2022/10/01 02:42:26;;;;;;;57.45;26.05;;;;;;;6.86;100.00;100105.53;4997171;28;20040;-75
2022/10/01 02:44:53;;;;;;;51.47;25.95;;;;;;;6.84;100.00;100108.84;4997386;28;20026;-76
2022/10/01 02:47:25;;;;;;;54.00;25.83;;;;;;;6.84;100.00;100102.38;5013587;28;20113;-75
2022/10/01 02:49:51;;;;;;;54.55;25.63;;;;;;;6.81;100.00;100109.00;5013534;28;20075;-76
2022/10/01 02:52:53;;;;;;;52.20;24.60;;;;;;;6.79;100.00;100100.94;5014688;28;20033;-75
2022/10/01 02:55:23;;;;;;;45.30;23.25;;;;;;;6.76;100.00;100101.09;5012261;28;20045;-76
2022/10/01 02:57:49;;;;;;;51.75;24.15;;;;;;;6.72;100.00;100098.44;5009704;28;20103;-75
2022/10/01 03:00:20;;;;;;;48.17;22.33;;;;;;;6.66;100.00;100103.16;5013141;28;20193;-76
2022/10/01 03:02:46;;;;;;;48.90;23.73;;;;;;;6.65;100.00;100105.19;5014953;28;20029;-75
2022/10/01 03:05:13;;;;;;;41.63;22.70;;;;;;;6.61;100.00;100107.41;5014479;28;20029;-75
2022/10/01 03:07:39;;;;;;;47.10;22.92;;;;;;;6.53;100.00;100102.50;5014406;28;20108;-75
2022/10/01 03:10:06;;;;;;;43.60;22.17;;;;;;;6.48;100.00;100100.28;5014248;28;20466;-75
2022/10/01 03:12:32;;;;;;;46.90;22.13;;;;;;;6.42;100.00;100099.31;5013630;28;20034;-75
2022/10/01 03:14:57;;;;;;;44.97;21.45;;;;;;;6.41;100.00;100100.56;5014088;28;20033;-76
2022/10/01 03:17:23;;;;;;;50.90;24.48;;;;;;;6.39;100.00;100105.91;5014775;28;20026;-76
2022/10/01 03:19:48;;;;;;;43.45;22.70;;;;;;;6.32;100.00;100107.03;5012913;28;20057;-75
2022/10/01 03:22:17;;;;;;;42.53;22.35;;;;;;;6.31;100.00;100108.28;5014197;28;20410;-75
2022/10/01 03:24:42;;;;;;;44.83;20.85;;;;;;;6.24;100.00;100092.28;4996574;28;20391;-75
2022/10/01 03:27:08;;;;;;;45.03;23.25;;;;;;;6.19;100.00;100098.56;5013988;28;20045;-76
2022/10/01 03:29:33;;;;;;;38.22;21.38;;;;;;;6.17;100.00;100097.47;5013455;28;20080;-76
2022/10/01 03:31:59;;;;;;;40.38;22.92;;;;;;;6.00;100.00;100074.25;5013901;28;20040;-75
2022/10/01 03:34:24;;;;;;;43.65;21.50;;;;;;;6.09;100.00;100093.38;5013983;28;20038;-75
2022/10/01 03:36:52;;;;;;;43.95;21.73;;;;;;;6.02;100.00;100091.59;5012655;28;20110;-75
2022/10/01 03:39:18;;;;;;;53.80;20.67;;;;;;;5.96;100.00;100084.16;5014022;28;20037;-75
2022/10/01 03:41:44;;;;;;;45.78;21.58;;;;;;;5.95;100.00;100088.25;5013990;28;20374;-74
2022/10/01 03:44:09;;;;;;;59.63;21.20;;;;;;;5.93;100.00;100090.78;5013826;28;20033;-75
2022/10/01 03:46:35;;;;;;;66.72;22.98;;;;;;;5.87;100.00;100081.28;5012416;28;20049;-75
2022/10/01 03:49:00;;;;;;;54.67;20.90;;;;;;;5.87;100.00;100093.44;5012679;28;20108;-76
2022/10/01 03:51:27;;;;;;;49.55;21.65;;;;;;;5.84;100.00;100088.69;5013939;28;20030;-76
2022/10/01 03:53:54;;;;;;;44.42;22.23;;;;;;;5.85;100.00;100090.25;5014276;28;20026;-75
2022/10/01 03:56:19;;;;;;;46.28;22.83;;;;;;;5.81;100.00;100081.09;5014189;28;20030;-75
2022/10/01 03:58:44;;;;;;;47.47;23.35;;;;;;;5.80;100.00;100100.16;5013710;28;20036;-76
2022/10/01 04:01:10;;;;;;;43.10;21.30;;;;;;;5.78;100.00;100091.34;5013005;28;20045;-75
2022/10/01 04:03:35;;;;;;;46.72;23.52;;;;;;;5.77;100.00;100095.44;5012622;28;20030;-75
2022/10/01 04:06:01;;;;;;;43.80;21.40;;;;;;;5.72;100.00;100089.56;5013786;28;20033;-75
2022/10/01 04:08:26;;;;;;;41.00;21.63;;;;;;;5.68;100.00;100086.09;5013781;28;20026;-75
2022/10/01 04:10:52;;;;;;;45.85;21.92;;;;;;;5.70;100.00;100097.75;5013557;28;20113;-76
2022/10/01 04:13:17;;;;;;;40.70;21.80;;;;;;;5.66;100.00;100085.75;5013568;28;20104;-75
2022/10/01 04:15:43;;;;;;;46.42;23.20;;;;;;;5.65;100.00;100087.00;5012616;28;20029;-76
2022/10/01 04:18:09;;;;;;;46.42;24.52;;;;;;;5.63;100.00;100081.81;5012795;28;20060;-75
2022/10/01 04:20:36;;;;;;;44.13;23.05;;;;;;;5.63;100.00;100076.16;5013812;28;20106;-76
2022/10/01 04:23:03;;;;;;;45.88;21.65;;;;;;;5.58;100.00;100067.47;5013894;28;20022;-75
2022/10/01 04:25:29;;;;;;;43.42;22.25;;;;;;;5.60;100.00;100076.28;5012499;28;20128;-75
2022/10/01 04:27:59;;;;;;;59.33;23.73;;;;;;;5.59;100.00;100075.50;5013601;28;20486;-74
2022/10/01 04:30:26;;;;;;;73.95;23.48;;;;;;;5.61;100.00;100077.84;5013476;28;20082;-74
2022/10/01 04:32:52;;;;;;;89.45;24.00;;;;;;;5.64;100.00;100085.44;5012507;28;20022;-75
2022/10/01 04:35:18;;;;;;;89.28;23.85;;;;;;;5.56;100.00;100062.25;5013776;28;20026;-76
2022/10/01 04:37:43;;;;;;;67.05;24.60;;;;;;;5.65;100.00;100078.50;5013725;28;20022;-75
2022/10/01 04:40:12;;;;;;;71.60;22.33;;;;;;;5.69;100.00;100082.00;5013462;28;20022;-75
2022/10/01 04:42:43;;;;;;;70.75;21.98;;;;;;;5.73;100.00;100083.44;5012141;28;20447;-75
2022/10/01 04:45:09;;;;;;;78.40;20.20;;;;;;;5.76;100.00;100078.88;5013667;28;20037;-75
2022/10/01 04:47:35;;;;;;;61.38;20.70;;;;;;;5.75;100.00;100078.09;5013606;28;20030;-75
2022/10/01 04:50:01;;;;;;;75.25;20.27;;;;;;;5.79;100.00;100080.81;4995984;28;20033;-73
2022/10/01 04:52:26;;;;;;;71.18;21.10;;;;;;;5.79;100.00;100078.72;5011948;28;20401;-75
2022/10/01 04:54:52;;;;;;;62.13;20.20;;;;;;;5.78;100.00;100073.53;5012063;28;20467;-74
2022/10/01 04:57:21;;;;;;;58.63;20.17;;;;;;;5.82;100.00;100082.69;5013088;28;20485;-75
2022/10/01 04:59:47;;;;;;;55.70;21.15;;;;;;;5.85;100.00;100086.63;5015003;28;20042;-75
2022/10/01 05:02:12;;;;;;;52.55;20.52;;;;;;;5.82;100.00;100071.34;5016610;28;20026;-75
2022/10/01 05:04:38;;;;;;;59.10;21.58;;;;;;;5.85;100.00;100078.13;5015581;28;20101;-75
2022/10/01 05:07:04;;;;;;;56.13;22.38;;;;;;;5.84;100.00;100077.34;5016689;28;20032;-75
2022/10/01 05:09:29;;;;;;;53.30;20.25;;;;;;;5.76;100.00;100076.84;5015171;28;20030;-75
2022/10/01 05:11:54;;;;;;;54.35;20.75;;;;;;;5.78;100.00;100073.53;5016366;28;20026;-75
2022/10/01 05:14:20;;;;;;;41.55;19.92;;;;;;;5.73;100.00;100074.16;5016534;28;20056;-75
2022/10/01 05:16:45;;;;;;;44.17;21.85;;;;;;;5.70;100.00;100070.19;5016669;28;20021;-75
2022/10/01 05:19:11;;;;;;;40.65;20.35;;;;;;;5.73;100.00;100069.28;5015269;28;20022;-75
2022/10/01 05:21:37;;;;;;;35.83;20.15;;;;;;;5.78;100.00;100071.50;5014986;28;20430;-75
2022/10/01 05:24:02;;;;;;;31.80;19.30;;;;;;;5.77;100.00;100072.75;5015955;28;20029;-75
2022/10/01 05:26:30;;;;;;;31.73;19.25;;;;;;;5.82;100.00;100079.84;5016213;28;20497;-74
2022/10/01 05:28:59;;;;;;;33.28;18.00;;;;;;;5.88;100.00;100075.16;5016017;28;20030;-75
2022/10/01 05:31:25;;;;;;;40.42;18.30;;;;;;;5.95;100.00;100074.88;5014619;28;20046;-75
2022/10/01 05:33:50;;;;;;;34.97;16.80;;;;;;;5.95;100.00;100069.19;5016175;28;20026;-76
2022/10/01 05:36:16;;;;;;;35.80;18.60;;;;;;;6.05;100.00;100075.69;5016094;28;20029;-75
2022/10/01 05:38:41;;;;;;;40.67;17.58;;;;;;;6.10;100.00;100080.75;5015912;28;20057;-75
2022/10/01 05:41:07;;;;;;;30.13;18.58;;;;;;;6.19;100.00;100073.03;5014734;28;20017;-75
2022/10/01 05:43:32;;;;;;;43.38;19.35;;;;;;;6.25;100.00;100067.53;5014934;28;20026;-76
2022/10/01 05:46:02;;;;;;;33.40;18.45;;;;;;;6.30;100.00;100052.78;5014781;28;20030;-76
2022/10/01 05:48:30;;;;;;;28.73;17.42;;;;;;;6.51;100.00;100057.56;5014491;28;20025;-75
2022/10/01 05:50:57;;;;;;;28.92;16.40;;;;;;;6.64;100.00;100051.72;5015744;28;20053;-76
2022/10/01 05:53:23;;;;;;;31.17;15.60;;;;;;;6.76;100.00;100053.63;5015846;28;20110;-76
2022/10/01 05:55:48;;;;;;;30.23;17.15;;;;;;;6.85;100.00;100055.66;5014793;28;20435;-76
2022/10/01 05:58:14;;;;;;;36.17;16.75;;;;;;;6.88;100.00;100046.97;5015774;28;20022;-76
2022/10/01 06:00:40;;;;;;;32.17;18.00;;;;;;;6.97;100.00;100051.91;5014447;28;20351;-76
2022/10/01 06:03:06;;;;;;;37.38;18.05;;;;;;;7.06;100.00;100054.72;5014331;28;20049;-75
2022/10/01 06:05:34;;;;;;;36.80;17.88;;;;;;;7.15;100.00;100048.22;5014366;28;20026;-75
2022/10/01 06:08:00;;;;;;;37.63;18.00;;;;;;;7.30;100.00;100049.16;5014627;28;20084;-75
2022/10/01 06:10:29;;;;;;;34.40;18.92;;;;;;;7.43;100.00;100049.75;5015082;28;20179;-75
2022/10/01 06:13:04;;;;;;;35.33;18.25;;;;;;;7.68;100.00;100054.25;5015294;28;20034;-75
2022/10/01 06:15:33;;;;;;;37.80;18.85;;;;;;;7.97;100.00;100060.94;5015802;28;20057;-75
2022/10/01 06:18:05;;;;;;;39.33;18.45;;;;;;;8.19;100.00;100057.88;5015293;28;20026;-75
2022/10/01 06:20:31;;;;;;;40.75;17.85;;;;;;;8.37;100.00;100054.09;5014140;28;20155;-76
2022/10/01 06:22:57;;;;;;;31.92;16.90;;;;;;;8.57;100.00;100062.06;5014283;28;20459;-75
2022/10/01 06:25:23;;;;;;;24.75;16.40;;;;;;;8.69;100.00;100043.94;5013933;28;20030;-75
2022/10/01 06:27:57;;;;;;;32.25;18.00;;;;;;;9.03;100.00;100060.44;5014056;28;20083;-76
2022/10/01 06:30:28;;;;;;;25.60;17.23;;;;;;;9.41;100.00;100056.72;5014814;28;20058;-75
2022/10/01 06:33:03;;;;;;;27.05;15.85;;;;;;;9.80;100.00;100057.44;5013658;28;20018;-74
2022/10/01 06:35:30;;;;;;;20.77;13.52;;;;;;;9.83;100.00;100052.81;5015286;28;20026;-73
2022/10/01 06:37:55;;;;;;;27.58;16.58;;;;;;;9.56;100.00;100051.81;5013560;28;20359;-73
2022/10/01 06:40:21;;;;;;;29.67;16.52;;;;;;;9.22;100.00;100029.69;5014783;28;20032;-72
2022/10/01 06:42:47;;;;;;;24.48;15.57;;;;;;;9.20;100.00;100050.13;5014644;28;20101;-72
2022/10/01 06:45:14;;;;;;;31.92;16.27;;;;;;;9.21;100.00;100051.69;5013384;28;20025;-72
2022/10/01 06:47:40;;;;;;;27.73;15.77;;;;;;;9.37;100.00;100049.66;5014478;28;20104;-72
2022/10/01 06:50:05;;;;;;;31.15;15.85;;;;;;;9.59;100.00;100050.81;5014968;28;20068;-72
2022/10/01 06:52:49;;;;;;;25.42;16.83;;;;;;;10.03;100.00;100047.19;5014816;28;20072;-72
2022/10/01 06:55:19;;;;;;;24.05;15.32;;;;;;;10.58;100.00;100052.88;5014677;28;20363;-73
2022/10/01 06:57:45;;;;;;;26.90;16.20;;;;;;;11.04;100.00;100040.72;5013293;28;20037;-72
2022/10/01 07:00:12;;;;;;;23.42;14.23;;;;;;;11.57;100.00;100037.38;5013150;28;20026;-72
2022/10/01 07:02:38;;;;;;;22.17;15.20;;;;;;;12.23;100.00;100035.06;5014592;28;20064;-71
2022/10/01 07:05:04;;;;;;;26.65;15.98;;;;;;;12.98;100.00;100021.38;5014510;28;20465;-73
2022/10/01 07:07:31;;;;;;;23.42;14.10;;;;;;;13.78;100.00;100028.31;5014502;28;20034;-72
2022/10/01 07:09:57;;;;;;;21.52;14.95;;;;;;;14.49;100.00;100025.84;5014486;28;20028;-73
2022/10/01 07:12:23;;;;;;;22.88;15.23;;;;;;;14.92;100.00;100025.47;5014640;28;20022;-73
2022/10/01 07:14:48;;;;;;;25.75;14.80;;;;;;;15.18;100.00;100022.97;5012921;28;20026;-71
2022/10/01 07:17:14;;;;;;;20.10;14.35;;;;;;;15.77;100.00;100012.88;5014398;28;20017;-73
2022/10/01 07:19:39;;;;;;;20.75;14.98;;;;;;;16.05;100.00;100014.22;5014153;28;20429;-71
2022/10/01 07:22:05;;;;;;;24.17;15.25;;;;;;;16.43;100.00;100011.47;5013591;28;20022;-73
2022/10/01 07:24:30;;;;;;;21.02;14.13;;;;;;;16.51;100.00;100013.19;5014237;28;20030;-73
2022/10/01 07:26:55;;;;;;;21.40;15.52;;;;;;;16.87;98.38;100016.75;5014090;28;20041;-73
2022/10/01 07:29:23;;;;;;;22.33;14.73;;;;;;;17.60;98.15;100002.06;5014183;28;20029;-73
2022/10/01 07:31:50;;;;;;;21.90;15.98;;;;;;;18.07;92.10;100005.22;5013570;28;20085;-72
2022/10/01 07:34:15;;;;;;;24.85;15.27;;;;;;;18.51;91.71;99979.69;5014256;28;20029;-73
2022/10/01 07:36:44;;;;;;;21.88;15.90;;;;;;;18.93;85.91;100001.69;5014099;28;20037;-73
2022/10/01 07:39:10;;;;;;;22.50;16.05;;;;;;;19.30;85.86;100000.66;5013932;28;20037;-74
2022/10/01 07:41:35;;;;;;;20.25;15.10;;;;;;;19.69;85.28;99991.03;5012592;28;20026;-75
2022/10/01 07:44:03;;;;;;;19.33;15.20;;;;;;;19.87;84.34;99989.25;5013937;28;20088;-73
2022/10/01 07:46:29;;;;;;;20.10;14.23;;;;;;;19.83;83.55;99995.41;5014013;28;20044;-74
2022/10/01 07:48:54;;;;;;;18.92;13.45;;;;;;;20.04;81.35;99994.66;5014102;28;20036;-74
2022/10/01 07:51:20;;;;;;;19.25;12.93;;;;;;;20.31;80.32;99978.63;5013639;28;20033;-73
2022/10/01 07:53:46;;;;;;;15.13;12.63;;;;;;;20.71;78.46;99993.63;5013849;28;20030;-71
2022/10/01 07:56:11;;;;;;;19.80;14.60;;;;;;;20.76;74.52;99990.56;5012351;28;20532;-74
2022/10/01 07:58:36;;;;;;;17.55;13.20;;;;;;;20.86;75.24;99987.13;5013896;28;20030;-73
2022/10/01 08:01:03;;;;;;;17.70;13.23;;;;;;;21.14;73.46;99996.53;5013983;28;20030;-74
2022/10/01 08:03:28;;;;;;;16.60;13.43;;;;;;;21.39;72.22;99984.41;5013863;28;20458;-73
2022/10/01 08:05:54;;;;;;;19.20;13.60;;;;;;;21.70;72.14;99988.22;5013596;28;20118;-73
2022/10/01 08:08:19;;;;;;;15.48;12.00;;;;;;;21.95;69.00;99998.72;5013624;28;20137;-74
2022/10/01 08:10:45;;;;;;;20.33;13.55;;;;;;;21.95;67.12;100003.78;5012348;28;20053;-74
2022/10/01 08:13:15;;;;;;;14.07;11.60;;;;;;;22.04;67.83;99989.41;5012207;28;20037;-73
2022/10/01 08:15:42;;;;;;;15.70;12.13;;;;;;;21.94;67.35;99978.94;5013642;28;20037;-73
2022/10/01 08:18:09;;;;;;;16.33;12.27;;;;;;;21.63;67.35;99983.97;5012437;28;20458;-73
2022/10/01 08:20:35;;;;;;;17.05;12.32;;;;;;;21.29;67.92;99980.53;5013419;28;20029;-73
2022/10/01 08:23:02;;;;;;;15.95;11.98;;;;;;;21.13;70.84;99976.81;5013383;28;20025;-73
2022/10/01 08:25:28;;;;;;;14.23;11.23;;;;;;;21.02;69.20;99975.00;5013306;28;20373;-73
2022/10/01 08:27:53;;;;;;;13.93;10.48;;;;;;;20.70;68.19;99975.41;5012252;28;20029;-74
2022/10/01 08:30:19;;;;;;;13.05;10.60;;;;;;;20.38;70.22;99969.97;5012646;28;20061;-73
2022/10/01 08:32:44;;;;;;;20.40;10.82;;;;;;;20.05;70.83;99958.50;5013306;28;20038;-74
2022/10/01 08:35:11;;;;;;;15.23;10.88;;;;;;;19.73;72.77;99958.78;5016355;28;20072;-72
2022/10/01 08:37:36;;;;;;;14.32;10.65;;;;;;;19.31;74.46;99950.06;5017343;28;20030;-74
2022/10/01 08:40:02;;;;;;;12.63;10.35;;;;;;;19.05;76.20;99945.09;5017156;28;20430;-74
2022/10/01 08:42:37;;;;;;;14.63;10.10;;;;;;;18.86;78.90;99940.81;5016245;28;20096;-74
2022/10/01 08:45:12;;;;;;;13.45;9.57;;;;;;;18.94;82.27;99936.66;5016286;28;20076;-74
2022/10/01 08:47:43;;;;;;;17.42;10.90;;;;;;;19.10;82.16;99931.81;5017154;28;20022;-74
2022/10/01 08:53:06;;;;;;;16.15;10.52;;;;;;;19.30;81.37;99925.31;5041979;22;20513;-74
2022/10/01 08:55:35;;;;;;;16.95;9.38;;;;;;;19.36;81.20;99923.03;5015397;28;20080;-75
2022/10/01 08:58:03;;;;;;;13.40;9.25;;;;;;;19.38;80.71;99928.28;5015602;28;20022;-73
2022/10/01 09:00:31;;;;;;;14.80;8.98;;;;;;;19.31;79.65;99929.00;5015512;28;20433;-74
2022/10/01 09:03:00;;;;;;;11.98;8.48;;;;;;;19.08;78.93;99917.13;4999101;28;20040;-74
2022/10/01 09:06:08;;;;;;;9.40;7.95;;;;;;;18.68;79.05;99908.53;5015605;28;20471;-75
2022/10/01 09:08:47;;;;;;;15.45;9.35;;;;;;;18.27;80.89;99908.34;5016124;28;20038;-73
2022/10/01 09:11:43;;;;;;;14.32;8.73;;;;;;;18.00;84.01;99901.75;5014958;28;20037;-75
2022/10/01 09:14:38;;;;;;;15.18;9.25;;;;;;;17.88;85.41;99890.97;5015160;28;20397;-75
2022/10/01 09:17:24;;;;;;;13.57;9.13;;;;;;;17.95;86.97;99888.19;5014426;28;20109;-74
2022/10/01 09:20:03;;;;;;;11.98;8.88;;;;;;;18.11;88.11;99880.53;5016284;28;20129;-75
2022/10/01 09:22:50;;;;;;;14.25;9.00;;;;;;;18.31;87.13;99882.00;5015099;28;20112;-75
2022/10/01 09:25:24;;;;;;;12.95;8.75;;;;;;;18.33;86.41;99877.19;5014892;28;20619;-74
2022/10/01 09:28:13;;;;;;;17.63;9.00;;;;;;;18.37;86.99;99882.66;5015866;28;20029;-74
2022/10/01 09:31:05;;;;;;;12.85;8.25;;;;;;;18.32;86.73;99881.44;5014803;28;20026;-74
2022/10/01 09:33:34;;;;;;;12.43;7.65;;;;;;;18.33;87.68;99874.31;5014886;28;20049;-73
2022/10/01 09:36:22;;;;;;;14.93;7.72;;;;;;;18.36;87.89;99873.22;4998276;28;20496;-75
2022/10/01 09:38:58;;;;;;;10.80;7.40;;;;;;;18.43;87.33;99877.53;4998144;28;20033;-74
2022/10/01 09:41:24;;;;;;;14.88;8.02;;;;;;;18.41;87.18;99866.53;5014937;28;20455;-74
2022/10/01 09:43:49;;;;;;;15.52;7.20;;;;;;;18.41;87.67;99865.75;4998065;28;20030;-74
2022/10/01 09:46:16;;;;;;;17.40;8.10;;;;;;;18.37;87.51;99853.75;5014867;28;20040;-74
2022/10/01 09:49:04;;;;;;;13.02;7.15;;;;;;;18.34;87.88;99863.50;5015486;28;20359;-73
2022/10/01 09:51:45;;;;;;;14.60;8.00;;;;;;;18.27;88.18;99859.97;5014570;28;20052;-74
2022/10/01 09:54:26;;;;;;;12.05;7.82;;;;;;;18.23;89.33;99853.69;5014252;28;20049;-74
2022/10/01 09:57:08;;;;;;;14.20;7.45;;;;;;;18.20;89.46;99845.38;5014311;28;20036;-73
2022/10/01 09:59:49;;;;;;;9.27;7.35;;;;;;;18.16;89.74;99842.03;5014738;28;20025;-73
2022/10/01 10:02:21;;;;;;;11.70;7.20;;;;;;;18.11;90.19;99837.94;5014752;28;20018;-76
2022/10/01 10:04:58;;;;;;;9.10;7.55;;;;;;;18.17;90.55;99838.59;5014310;28;20026;-74
2022/10/01 10:07:23;;;;;;;12.30;8.00;;;;;;;18.15;90.76;99832.59;5015558;28;20018;-75
2022/10/01 10:09:51;;;;;;;14.23;8.75;;;;;;;18.12;90.24;99832.94;5014132;28;20048;-74
2022/10/01 10:12:36;;;;;;;11.25;7.32;;;;;;;18.08;90.66;99818.78;5014012;28;20394;-74
2022/10/01 10:15:07;;;;;;;12.10;7.97;;;;;;;18.10;91.08;99815.34;5014877;28;20112;-73
2022/10/01 10:17:34;;;;;;;15.10;8.23;;;;;;;18.15;91.90;99818.13;4997576;28;20478;-73
2022/10/01 10:20:09;;;;;;;13.38;7.55;;;;;;;18.24;91.44;99808.19;5014806;28;20601;-75
2022/10/01 10:22:35;;;;;;;11.30;7.68;;;;;;;18.27;90.95;99807.09;4997538;28;20066;-74
2022/10/01 10:25:10;;;;;;;12.13;7.68;;;;;;;18.32;90.63;99802.56;5015269;28;20030;-73
2022/10/01 10:27:36;;;;;;;11.38;7.38;;;;;;;18.32;90.71;99806.22;4997593;28;20033;-74
2022/10/01 10:30:18;;;;;;;12.48;6.82;;;;;;;18.39;91.04;99798.97;5014203;28;20025;-73
2022/10/01 10:32:45;;;;;;;16.40;6.40;;;;;;;18.47;90.17;99797.75;5015321;28;20072;-74
2022/10/01 10:35:15;;;;;;;9.68;6.32;;;;;;;18.63;90.08;99787.09;5014462;28;20032;-74
2022/10/01 10:37:52;;;;;;;7.95;6.18;;;;;;;18.78;90.09;99783.59;5014224;28;20458;-75
2022/10/01 10:40:24;;;;;;;8.02;6.55;;;;;;;18.92;90.64;99777.16;5014840;28;20026;-74
2022/10/01 10:42:49;;;;;;;;;;;;;;;19.07;88.14;99770.75;4997526;28;20026;-74
2022/10/01 10:45:19;;;;;;;15.15;5.45;;;;;;;19.17;86.37;99776.84;5013630;28;19967;-73
2022/10/01 10:47:47;;;;;;;9.15;5.30;;;;;;;19.35;86.61;99776.63;5013411;28;20382;-74
2022/10/01 10:50:30;;;;;;;12.77;5.43;;;;;;;19.54;84.67;99762.66;5014820;28;20168;-74
2022/10/01 10:52:56;;;;;;;12.02;5.78;;;;;;;19.69;83.57;99761.97;5014239;28;20052;-72
2022/10/01 10:55:23;;;;;;;5.35;4.45;;;;;;;19.81;82.15;99763.19;5014465;28;20366;-74
2022/10/01 10:57:49;;;;;;;10.00;5.30;;;;;;;19.86;79.29;99761.47;4996877;28;20085;-74
2022/10/01 11:00:17;;;;;;;6.63;4.97;;;;;;;19.92;78.37;99753.41;5013611;28;20110;-74
2022/10/01 11:02:58;;;;;;;14.95;6.80;;;;;;;19.95;79.26;99753.06;5014806;28;20029;-75
2022/10/01 11:05:28;;;;;;;8.23;4.82;;;;;;;20.02;78.58;99750.78;5014466;28;20037;-74
2022/10/01 11:07:57;;;;;;;6.28;4.35;;;;;;;20.05;77.95;99744.63;4996987;28;20029;-74
2022/10/01 11:10:48;;;;;;;9.50;4.60;;;;;;;20.09;76.70;99738.44;5013323;28;20029;-75
2022/10/01 11:13:33;;;;;;;7.43;4.80;;;;;;;19.93;76.05;99737.56;5014304;28;20034;-75
2022/10/01 11:16:33;;;;;;;5.82;4.63;;;;;;;19.72;76.67;99739.75;5014313;28;20037;-74
2022/10/01 11:19:01;;;;;;;14.00;5.80;;;;;;;19.56;77.75;99735.22;5013160;28;20037;-74
2022/10/01 11:21:54;;;;;;;13.95;5.00;;;;;;;19.35;79.03;99726.59;5014338;28;20105;-74
2022/10/01 11:24:41;;;;;;;7.22;4.63;;;;;;;19.09;79.62;99715.94;5012979;28;20036;-73
2022/10/01 11:27:22;;;;;;;7.20;4.57;;;;;;;18.89;79.38;99728.31;5012946;28;20029;-73
2022/10/01 11:30:14;;;;;;;4.20;3.25;;;;;;;18.63;78.02;99727.09;5012913;28;20025;-73